Latest Coastal Weather Observations for Groote Eylandt Airport

IDD60701

Issued at 3:21 pm CST Tuesday 1 September 2015 (issued every 10 minutes, with the page automatically refreshed every 10 minutes)

About coastal observations | Map of coastal stations | Coastal observations for NT | Marine services | Other Formats
Station Details ID: 014518 Name: GROOTE EYLANDT AIRPORT Lat: -13.97 Lon: 136.46 Height: 13.7 m
Data from the previous 72 hours. | See also: Recent months at Groote Eylandt Airport
Date/Time
CST
Temp

°C
Wind Pressure Rain
since 9am
mm
Weather Cloud Vis
km
Sea
Height
m
Swell
Dir
 
Speed
knots
Gust
knots
hPa Trend Height
m
Period
s
Dir
01/03:00pm 30.0 W 7 11 1012.0 - 0.0 - Mostly cloudy - - - - -
01/02:30pm 30.4 WSW 6 9 1012.1 - 0.0 - Partly cloudy - - - - -
01/02:00pm 29.6 WSW 7 11 1012.4 - 0.0 - - - - - - -
01/01:30pm 29.2 SW 7 11 1012.8 - 0.0 - - - - - - -
01/01:00pm 29.2 WSW 8 13 1013.3 - 0.0 - - - - - - -
01/12:30pm 28.5 SW 7 11 1013.6 - 0.0 - - - - - - -
01/12:00pm 28.4 W 9 14 1014.0 - 0.0 - - - - - - -
01/11:30am 28.8 W 9 12 1014.3 - 0.0 - - - - - - -
01/11:00am 27.6 WSW 7 11 1014.6 - 0.0 - - - - - - -
01/10:30am 28.6 WSW 7 10 1015.0 - 0.0 - - - - - - -
01/10:00am 29.3 E 3 8 1015.2 - 0.0 - - - - - - -
01/09:30am 28.3 SE 3 5 1015.3 - 0.0 - - - - - - -
01/09:00am 27.0 CALM 0 3 1015.4 - 0.0 - - - - - - -
01/08:30am 25.6 CALM 0 0 1015.3 - 0.0 - - - - - - -
01/08:00am 23.4 CALM 0 1 1015.0 - 0.0 - - - - - - -
01/07:30am 19.5 SW 3 5 1014.7 - 0.0 - - - - - - -
01/07:00am 16.4 CALM 0 0 1014.1 - 0.0 - - - - - - -
01/06:30am 15.8 E 5 5 1013.7 - 0.0 - - - - - - -
01/06:00am 15.9 ESE 3 4 1013.3 - 0.0 - - - - - - -
01/05:30am 16.1 ESE 1 3 1013.0 - 0.0 - - - - - - -
01/05:00am 16.1 SE 3 5 1012.8 - 0.0 - - - - - - -
01/04:30am 16.8 E 3 5 1012.6 - 0.0 - - - - - - -
01/04:00am 17.1 E 4 5 1012.6 - 0.0 - - - - - - -
01/03:30am 17.3 ESE 3 4 1012.8 - 0.0 - - - - - - -
01/03:00am 17.5 ESE 2 5 1012.7 - 0.0 - - - - - - -
01/02:30am 17.8 E 6 7 1012.8 - 0.0 - - - - - - -
01/02:00am 18.6 ESE 5 7 1013.0 - 0.0 - - - - - - -
01/01:30am 18.0 CALM 0 0 1013.3 - 0.0 - - - - - - -
01/01:00am 18.2 E 5 5 1013.5 - 0.0 - - - - - - -
01/12:30am 18.3 E 5 5 1013.8 - 0.0 - - - - - - -
01/12:00am 18.3 E 3 4 1014.1 - 0.0 - - - - - - -
 
Date/Time
CST
Temp

°C
Wind Pressure Rain
since 9am
mm
Weather Cloud Vis
km
Sea
Height
m
Swell
Dir
 
Speed
knots
Gust
knots
hPa Trend Height
m
Period
s
Dir
31/11:30pm 17.9 ESE 4 5 1014.4 - 0.0 - - - - - - -
31/11:00pm 18.2 E 4 5 1014.4 - 0.0 - - - - - - -
31/10:30pm 18.2 ESE 1 3 1014.5 - 0.0 - - - - - - -
31/10:00pm 18.8 E 3 5 1014.6 - 0.0 - - - - - - -
31/09:30pm 19.4 E 3 3 1014.7 - 0.0 - - - - - - -
31/09:00pm 19.8 ESE 3 5 1014.8 - 0.0 - - 5 - - - -
31/08:30pm 21.1 CALM 0 0 1014.5 - 0.0 - - 1 - - - -
31/08:20pm 21.5 CALM 0 0 1014.4 - 0.0 - - 5 - - - -
31/08:00pm 22.3 CALM 0 0 1014.0 - 0.0 - - 10 - - - -
31/07:30pm 24.2 CALM 0 2 1013.7 - 0.0 - - 10 - - - -
31/07:00pm 26.1 NNE 3 4 1013.3 - 0.0 - - 10 - - - -
31/06:30pm 28.0 ENE 3 5 1013.1 - 0.0 - - 10 - - - -
31/06:00pm 29.4 E 8 10 1012.8 - 0.0 - - 10 - - - -
31/05:30pm 30.6 ENE 8 11 1012.6 - 0.0 - - 10 - - - -
31/05:00pm 31.2 ENE 11 14 1012.4 - 0.0 - - 10 - - - -
31/04:30pm 31.5 NE 11 15 1012.2 - 0.0 - - 10 - - - -
31/04:00pm 32.0 E 8 13 1012.2 - 0.0 - - 10 - - - -
31/03:30pm 32.4 E 8 11 1012.2 - 0.0 - - 10 - - - -
31/03:00pm 32.5 ESE 8 14 1012.5 - 0.0 - - 10 - - - -
31/02:30pm 32.3 E 10 15 1012.9 - 0.0 - - 10 - - - -
31/02:00pm 32.1 ESE 9 14 1013.3 - 0.0 - - 10 - - - -
31/01:30pm 32.6 ESE 9 16 1013.7 - 0.0 - - 10 - - - -
31/01:00pm 33.0 E 11 20 1013.9 - 0.0 - - 10 - - - -
31/12:30pm 32.8 ESE 11 17 1014.4 - 0.0 - - 10 - - - -
31/12:00pm 32.6 ESE 9 15 1014.6 - 0.0 - - - - - - -
31/11:30am 32.2 SE 7 12 1015.1 - 0.0 - - - - - - -
31/11:00am 31.5 ESE 8 13 1015.6 - 0.0 - - - - - - -
31/10:30am 30.9 SE 7 13 1016.0 - 0.0 - - - - - - -
31/10:00am 29.4 SE 4 8 1016.3 - 0.0 - - - - - - -
31/09:30am 27.4 SSE 5 8 1016.5 - 0.0 - - - - - - -
31/09:00am 25.8 SSE 5 8 1016.4 - 0.0 - - - - - - -
31/08:30am 25.0 S 4 7 1016.2 - 0.0 - Partly cloudy - - - - -
31/08:00am 24.1 SSE 2 4 1016.1 - 0.0 - - - - - - -
31/07:30am 21.6 ESE 1 4 1015.7 - 0.0 - - - - - - -
31/07:00am 19.0 S 1 3 1015.4 - 0.0 - - - - - - -
31/06:45am 19.5 S 3 5 1015.2 - 0.0 - Partly cloudy - - - - -
31/06:30am 19.6 S 5 8 1015.1 - 0.0 - Partly cloudy - - - - -
31/06:00am 16.3 CALM 0 4 1014.5 - 0.0 - Mostly cloudy - - - - -
31/05:30am 16.6 CALM 0 0 1014.3 - 0.0 - Cloudy - - - - -
31/05:00am 17.0 CALM 0 0 1014.0 - 0.0 - Partly cloudy - - - - -
31/04:57am 17.0 CALM 0 0 1014.0 - 0.0 - Partly cloudy - - - - -
31/04:33am 17.2 CALM 0 0 1013.9 - 0.0 - Partly cloudy - - - - -
31/04:30am 17.2 CALM 0 0 1013.9 - 0.0 - Partly cloudy - - - - -
31/04:07am 17.3 E 1 3 1013.9 - 0.0 - Partly cloudy - - - - -
31/04:00am 17.2 CALM 0 0 1013.9 - 0.0 - Partly cloudy - - - - -
31/03:30am 17.6 CALM 0 0 1013.9 - 0.0 - - - - - - -
31/03:00am 18.4 E 3 4 1014.0 - 0.0 - - - - - - -
31/02:30am 18.6 CALM 0 0 1014.1 - 0.0 - - - - - - -
31/02:00am 19.1 CALM 0 0 1014.4 - 0.0 - - - - - - -
31/01:30am 19.5 CALM 0 0 1014.5 - 0.0 - - - - - - -
31/01:00am 19.8 CALM 0 0 1014.7 - 0.0 - - - - - - -
31/12:30am 20.3 CALM 0 0 1015.0 - 0.0 - - - - - - -
31/12:00am 21.1 CALM 0 2 1015.4 - 0.0 - - - - - - -
 
Date/Time
CST
Temp

°C
Wind Pressure Rain
since 9am
mm
Weather Cloud Vis
km
Sea
Height
m
Swell
Dir
 
Speed
knots
Gust
knots
hPa Trend Height
m
Period
s
Dir
30/11:30pm 21.5 ENE 2 3 1015.5 - 0.0 - - - - - - -
30/11:00pm 21.8 CALM 0 3 1015.5 - 0.0 - - - - - - -
30/10:30pm 22.0 CALM 0 0 1015.5 - 0.0 - - - - - - -
30/10:00pm 22.6 CALM 0 0 1015.5 - 0.0 - - - - - - -
30/09:30pm 23.4 NE 3 4 1015.7 - 0.0 - - - - - - -
30/09:00pm 23.8 NE 3 4 1015.7 - 0.0 - - - - - - -
30/08:30pm 24.2 E 1 4 1015.6 - 0.0 - - - - - - -
30/08:00pm 24.4 ESE 3 5 1015.3 - 0.0 - - - - - - -
30/07:30pm 25.3 ESE 5 7 1015.1 - 0.0 - - - - - - -
30/07:00pm 26.2 ESE 7 9 1014.7 - 0.0 - - - - - - -
30/06:30pm 27.0 ESE 5 8 1014.3 - 0.0 - - - - - - -
30/06:00pm 28.5 E 7 9 1013.8 - 0.0 - - - - - - -
30/05:30pm 29.5 ESE 7 10 1013.6 - 0.0 - - - - - - -
30/05:00pm 30.3 E 7 12 1013.4 - 0.0 - - - - - - -
30/04:30pm 30.8 SE 6 9 1013.2 - 0.0 - - - - - - -
30/04:00pm 31.1 ESE 7 11 1013.1 - 0.0 - - - - - - -
30/03:30pm 31.3 ESE 7 11 1013.2 - 0.0 - - - - - - -
30/03:00pm 31.3 ESE 9 13 1013.3 - 0.0 - - - - - - -
30/02:30pm 31.4 E 9 16 1013.6 - 0.0 - - - - - - -
30/02:00pm 31.7 E 11 17 1013.8 - 0.0 - - - - - - -
30/01:30pm 30.9 SE 9 14 1014.4 - 0.0 - - - - - - -
30/01:00pm 32.7 E 9 17 1014.7 - 0.0 - - - - - - -
30/12:30pm 31.9 ESE 10 15 1015.3 - 0.0 - - - - - - -
30/12:00pm 31.4 ESE 9 14 1015.7 - 0.0 - - - - - - -
30/11:30am 30.9 SSE 8 15 1016.1 - 0.0 - - - - - - -
30/11:00am 30.5 S 9 14 1016.6 - 0.0 - - - - - - -
30/10:30am 29.8 S 6 12 1016.8 - 0.0 - - - - - - -
30/10:00am 29.0 SSE 7 11 1016.9 - 0.0 - - - - - - -
30/09:30am 27.7 S 8 11 1016.9 - 0.0 - - - - - - -
30/09:00am 26.4 S 5 8 1016.8 - 0.0 - - - - - - -
30/08:30am 24.9 SSW 6 10 1016.7 - 0.0 - - - - - - -
30/08:00am 22.9 CALM 0 3 1016.6 - 0.0 - - - - - - -
30/07:32am 19.8 CALM 0 0 1016.3 - 0.0 - Partly cloudy - - - - -
30/07:30am 19.7 CALM 0 0 1016.3 - 0.0 - Partly cloudy - - - - -
30/07:00am 17.6 CALM 0 0 1015.9 - 0.0 - Partly cloudy - - - - -
30/06:54am 17.5 CALM 0 0 1015.9 - 0.0 - Partly cloudy - - - - -
30/06:30am 17.0 CALM 0 0 1015.6 - 0.0 - - - - - - -
30/06:00am 17.6 CALM 0 0 1015.3 - 0.0 - - - - - - -
30/05:30am 17.7 CALM 0 0 1015.1 - 0.0 - - - - - - -
30/05:00am 18.3 CALM 0 0 1014.9 - 0.0 - - - - - - -
30/04:30am 18.5 CALM 0 0 1014.7 - 0.0 - - - - - - -
30/04:00am 18.9 CALM 0 0 1014.6 - 0.0 - - - - - - -
30/03:30am 18.6 S 4 5 1014.6 - 0.0 - - - - - - -
30/03:00am 18.1 CALM 0 0 1014.6 - 0.0 - - - - - - -
30/02:30am 18.0 CALM 0 1 1014.5 - 0.0 - - - - - - -
30/02:00am 18.3 E 1 3 1014.6 - 0.0 - - - - - - -
30/01:30am 19.0 CALM 0 4 1014.9 - 0.0 - - - - - - -
30/01:00am 19.0 CALM 0 0 1015.1 - 0.0 - - - - - - -
30/12:30am 19.5 CALM 0 0 1015.4 - 0.0 - - - - - - -
30/12:00am 19.7 CALM 0 0 1015.5 - 0.0 - - - - - - -
 
Date/Time
CST
Temp

°C
Wind Pressure Rain
since 9am
mm
Weather Cloud Vis
km
Sea
Height
m
Swell
Dir
 
Speed
knots
Gust
knots
hPa Trend Height
m
Period
s
Dir
29/11:30pm 20.3 CALM 0 0 1015.7 - 0.0 - - - - - - -
29/11:00pm 20.9 CALM 0 0 1015.8 - 0.0 - - - - - - -
29/10:30pm 21.4 CALM 0 0 1015.8 - 0.0 - - - - - - -
29/10:00pm 21.9 CALM 0 0 1016.0 - 0.0 - - - - - - -
29/09:30pm 22.5 CALM 0 0 1015.9 - 0.0 - - - - - - -
29/09:00pm 23.6 ESE 1 3 1016.0 - 0.0 - - - - - - -
29/08:30pm 23.8 SE 3 4 1015.8 - 0.0 - - - - - - -
29/08:00pm 24.7 ESE 4 5 1015.7 - 0.0 - - - - - - -
29/07:30pm 25.7 ESE 4 5 1015.2 - 0.0 - - - - - - -
29/07:00pm 26.3 E 3 5 1014.8 - 0.0 - - - - - - -
29/06:30pm 27.0 NNE 5 6 1014.4 - 0.0 - - - - - - -
29/06:00pm 27.8 NNW 6 7 1013.9 - 0.0 - - - - - - -
29/05:30pm 28.7 NW 7 9 1013.7 - 0.0 - - - - - - -
29/05:00pm 28.8 WNW 9 11 1013.6 - 0.0 - - - - - - -
29/04:30pm 29.3 WNW 9 12 1013.4 - 0.0 - - - - - - -
29/04:00pm 29.8 WNW 11 15 1013.4 - 0.0 - - - - - - -
29/03:30pm 30.1 NW 6 9 1013.5 - 0.0 - - - - - - -

Other Formats:

Comma delimited format used in spreadsheet applications
http://www.bom.gov.au/fwo/IDD60701/IDD60701.94153.axf

JavaScript Object Notation format (JSON) in row-major order
http://www.bom.gov.au/fwo/IDD60701/IDD60701.94153.json